createdAt,value
2022-09-14T00:00:00.320Z,1.5
2022-09-14T00:05:00.361Z,1.0
2022-09-14T00:10:00.298Z,2.2
2022-09-14T00:15:00.245Z,1.8
2022-09-14T00:20:00.365Z,1.1
2022-09-14T00:25:00.265Z,2.0
2022-09-14T00:30:00.291Z,1.0
2022-09-14T00:35:00.232Z,0.8
2022-09-14T00:40:00.500Z,0.5
2022-09-14T00:45:00.224Z,1.6
2022-09-14T00:50:00.284Z,2.1
2022-09-14T00:55:00.227Z,2.5
2022-09-14T01:00:00.285Z,0.9
2022-09-14T01:05:00.234Z,1.8
2022-09-14T01:10:00.295Z,0.5
2022-09-14T01:15:00.227Z,0.7
2022-09-14T01:20:00.327Z,0.4
2022-09-14T01:25:00.241Z,0.6
2022-09-14T01:30:00.349Z,0.1
2022-09-14T01:35:00.263Z,3.0
2022-09-14T01:40:00.492Z,1.7
2022-09-14T01:45:00.283Z,0.9
2022-09-14T01:50:00.313Z,0.3
2022-09-14T01:55:00.251Z,0.2
2022-09-14T02:00:00.249Z,0.4
2022-09-14T02:05:00.221Z,0.2
2022-09-14T02:10:00.373Z,0.3
2022-09-14T02:15:00.447Z,2.3
2022-09-14T02:20:00.312Z,1.1
2022-09-14T02:25:00.254Z,1.4
2022-09-14T02:30:00.308Z,1.8
2022-09-14T02:35:00.234Z,1.2
2022-09-14T02:40:00.483Z,0.5
2022-09-14T02:45:00.292Z,0.8
2022-09-14T02:50:00.269Z,0.4
2022-09-14T02:55:00.247Z,0.5
2022-09-14T03:00:00.313Z,0.3
2022-09-14T03:05:00.230Z,1.4
2022-09-14T03:10:00.289Z,0.7
2022-09-14T03:15:00.254Z,0.8
2022-09-14T03:20:00.298Z,0.2
2022-09-14T03:25:00.291Z,1.1
2022-09-14T03:30:00.303Z,0.1
2022-09-14T03:35:00.226Z,0.5
2022-09-14T03:40:00.444Z,0.8
2022-09-14T03:45:00.217Z,0.0
2022-09-14T03:50:00.313Z,0.0
2022-09-14T03:55:00.214Z,0.0
2022-09-14T04:00:00.315Z,0.0
2022-09-14T04:05:00.254Z,0.0
2022-09-14T04:10:00.443Z,0.3
2022-09-14T04:15:00.257Z,2.0
2022-09-14T04:20:00.309Z,1.6
2022-09-14T04:25:00.317Z,2.0
2022-09-14T04:30:00.306Z,1.1
2022-09-14T04:35:00.290Z,0.4
2022-09-14T04:40:00.490Z,0.0
2022-09-14T04:45:00.233Z,0.0
2022-09-14T04:50:00.286Z,0.6
2022-09-14T04:55:00.226Z,0.0
2022-09-14T05:00:00.348Z,1.2
2022-09-14T05:05:00.275Z,1.8
2022-09-14T05:10:00.597Z,0.5
2022-09-14T05:15:00.239Z,0.4
2022-09-14T05:20:00.345Z,0.8
2022-09-14T05:25:00.290Z,1.5
2022-09-14T05:30:00.644Z,0.1
2022-09-14T05:35:00.247Z,0.0
2022-09-14T05:40:00.571Z,0.1
2022-09-14T05:45:00.271Z,0.2
2022-09-14T05:50:00.461Z,0.1
2022-09-14T05:55:00.214Z,0.0
2022-09-14T06:00:00.338Z,0.1
2022-09-14T06:05:00.407Z,0.3
2022-09-14T06:10:00.327Z,0.3
2022-09-14T06:15:00.247Z,0.4
2022-09-14T06:20:05.029Z,1.6
2022-09-14T06:25:00.276Z,2.4
2022-09-14T06:30:00.303Z,1.9
2022-09-14T06:35:00.302Z,0.4
2022-09-14T06:40:00.429Z,1.2
2022-09-14T06:45:00.261Z,0.5
2022-09-14T06:50:00.451Z,0.9
2022-09-14T06:55:00.232Z,1.3
2022-09-14T07:00:00.326Z,2.3
2022-09-14T07:05:00.258Z,2.1
2022-09-14T07:10:00.343Z,1.7
2022-09-14T07:15:00.234Z,1.9
2022-09-14T07:20:00.372Z,0.5
2022-09-14T07:25:00.220Z,2.4
2022-09-14T07:30:00.302Z,1.2
2022-09-14T07:35:00.316Z,5.2
2022-09-14T07:40:00.517Z,2.8
2022-09-14T07:45:00.217Z,0.4
2022-09-14T07:50:00.349Z,1.9
2022-09-14T07:55:00.337Z,1.5
2022-09-14T08:00:00.346Z,2.0
2022-09-14T08:05:00.342Z,0.9
2022-09-14T08:10:00.466Z,4.1
2022-09-14T08:15:00.374Z,0.8
2022-09-14T08:20:00.338Z,3.8
2022-09-14T08:25:00.330Z,3.5
2022-09-14T08:30:00.421Z,3.2
2022-09-14T08:35:00.255Z,3.5
2022-09-14T08:40:00.500Z,1.6
2022-09-14T08:45:00.316Z,3.5
2022-09-14T08:50:00.434Z,3.1
2022-09-14T08:55:00.222Z,2.2
2022-09-14T09:00:00.304Z,2.6
2022-09-14T09:05:00.256Z,2.3
2022-09-14T09:10:00.330Z,2.8
2022-09-14T09:15:00.376Z,2.4
2022-09-14T09:20:00.286Z,2.6
2022-09-14T09:25:00.310Z,3.2
2022-09-14T09:30:00.351Z,5.5
2022-09-14T09:35:00.236Z,3.8
2022-09-14T09:40:00.537Z,3.8
2022-09-14T09:45:03.814Z,2.2
2022-09-14T09:50:00.456Z,2.7
2022-09-14T09:55:00.228Z,0.8
2022-09-14T10:00:00.395Z,2.7
2022-09-14T10:05:00.272Z,3.8
2022-09-14T10:10:00.482Z,3.6
2022-09-14T10:15:00.247Z,2.0
2022-09-14T10:20:00.425Z,1.9
2022-09-14T10:25:00.233Z,3.0
2022-09-14T10:30:00.481Z,1.0
2022-09-14T10:35:00.241Z,4.1
2022-09-14T10:40:00.512Z,3.2
2022-09-14T10:45:00.247Z,4.7
2022-09-14T10:50:00.437Z,5.6
2022-09-14T10:55:00.219Z,1.8
2022-09-14T11:00:00.373Z,2.9
2022-09-14T11:05:00.264Z,2.5
2022-09-14T11:10:00.428Z,3.6
2022-09-14T11:15:00.290Z,5.2
2022-09-14T11:20:00.467Z,2.6
2022-09-14T11:25:00.234Z,1.6
2022-09-14T11:30:00.343Z,4.4
2022-09-14T11:35:00.234Z,6.1
2022-09-14T11:40:00.572Z,2.3
2022-09-14T11:45:00.242Z,3.4
2022-09-14T11:50:00.356Z,2.7
2022-09-14T11:55:00.275Z,1.6
2022-09-14T12:00:00.337Z,2.0
2022-09-14T12:05:00.255Z,3.6
2022-09-14T12:10:00.289Z,3.2
2022-09-14T12:15:00.265Z,2.3
2022-09-14T12:20:00.347Z,3.8
2022-09-14T12:25:00.213Z,1.9
2022-09-14T12:30:00.365Z,1.2
2022-09-14T12:35:00.329Z,4.5
2022-09-14T12:40:00.580Z,3.0
2022-09-14T12:45:00.219Z,2.7
2022-09-14T12:50:00.500Z,2.5
2022-09-14T12:55:00.322Z,4.0
2022-09-14T13:00:00.407Z,2.5
2022-09-14T13:05:00.259Z,2.2
2022-09-14T13:10:00.397Z,3.4
2022-09-14T13:15:00.223Z,2.1
2022-09-14T13:20:00.446Z,2.5
2022-09-14T13:25:00.211Z,2.1
2022-09-14T13:30:00.389Z,1.9
2022-09-14T13:35:00.309Z,3.6
2022-09-14T13:40:00.565Z,3.3
2022-09-14T13:45:00.226Z,3.0
2022-09-14T13:50:00.450Z,2.6
2022-09-14T13:55:00.212Z,3.6
2022-09-14T14:00:00.347Z,0.7
2022-09-14T14:05:00.264Z,1.0
2022-09-14T14:10:00.507Z,5.1
2022-09-14T14:15:00.225Z,1.7
2022-09-14T14:20:00.522Z,1.5
2022-09-14T14:25:13.533Z,2.1
2022-09-14T14:30:00.482Z,1.1
2022-09-14T14:35:00.230Z,2.6
2022-09-14T14:40:00.603Z,0.3
2022-09-14T14:45:00.276Z,2.1
2022-09-14T14:50:00.651Z,0.7
2022-09-14T14:55:01.552Z,0.6
2022-09-14T15:00:00.588Z,0.5
2022-09-14T15:05:00.217Z,0.4
2022-09-14T15:10:00.487Z,0.1
2022-09-14T15:15:00.278Z,0.4
2022-09-14T15:20:00.503Z,1.0
2022-09-14T15:25:00.236Z,1.5
2022-09-14T15:30:00.587Z,0.7
2022-09-14T15:35:00.237Z,0.8
2022-09-14T15:40:00.687Z,0.1
2022-09-14T15:45:00.230Z,0.4
2022-09-14T15:50:00.327Z,0.8
2022-09-14T15:55:00.217Z,0.7
2022-09-14T16:00:00.313Z,1.4
2022-09-14T16:05:00.350Z,1.5
2022-09-14T16:10:00.494Z,0.1
2022-09-14T16:15:00.268Z,0.0
2022-09-14T16:20:00.361Z,0.0
2022-09-14T16:25:00.233Z,0.8
2022-09-14T16:30:00.301Z,0.2
2022-09-14T16:35:05.937Z,0.2
2022-09-14T16:40:00.456Z,0.9
2022-09-14T16:45:00.271Z,0.4
2022-09-14T16:50:00.299Z,0.0
2022-09-14T16:55:00.224Z,0.0
2022-09-14T17:00:00.306Z,0.3
2022-09-14T17:05:00.236Z,0.0
2022-09-14T17:10:00.332Z,0.5
2022-09-14T17:15:00.302Z,0.1
2022-09-14T17:20:00.340Z,0.1
2022-09-14T17:25:00.229Z,0.1
2022-09-14T17:30:00.321Z,0.0
2022-09-14T17:35:00.222Z,0.0
2022-09-14T17:40:00.437Z,0.0
2022-09-14T17:45:00.229Z,0.0
2022-09-14T17:50:00.300Z,0.0
2022-09-14T17:55:00.289Z,0.0
